Time;durP1;ratioP1;P1;durP2;ratioP2;P2;SDS_P1;SDS_P2;PMS_P1;PMS_P2;Temp;Humidity;BMP_temperature;BMP_pressure;BME280_temperature;BME280_humidity;BME280_pressure;Samples;Min_cycle;Max_cycle;Signal;HPM_P1;HPM_P2
2023/05/09 00:00:05;;;;;;;;;;;13.90;77.60;;;;;;5089104;28;19948;-71
2023/05/09 00:02:33;;;;;;;;;;;13.90;77.60;;;;;;5088182;28;19971;-71
2023/05/09 00:05:02;;;;;;;;;;;13.90;77.60;;;;;;5088337;28;19916;-71
2023/05/09 00:07:28;;;;;;;;;;;13.80;77.60;;;;;;5087056;28;19926;-71
2023/05/09 00:09:53;;;;;;;;;;;13.80;77.60;;;;;;5088381;28;20326;-71
2023/05/09 00:12:20;;;;;;;;;;;13.80;77.60;;;;;;5088278;28;19911;-71
2023/05/09 00:14:49;;;;;;;;;;;13.80;77.70;;;;;;5088663;28;19908;-71
2023/05/09 00:17:15;;;;;;;;;;;13.80;77.70;;;;;;5088206;28;20288;-71
2023/05/09 00:19:42;;;;;;;;;;;13.80;77.70;;;;;;5087098;28;20333;-71
2023/05/09 00:22:08;;;;;;;;;;;13.80;77.70;;;;;;5088262;28;19908;-71
2023/05/09 00:24:33;;;;;;;;;;;13.80;77.70;;;;;;5088044;28;19912;-71
2023/05/09 00:26:59;;;;;;;;;;;13.80;77.60;;;;;;5088136;28;19999;-71
2023/05/09 00:29:25;;;;;;;;;;;13.80;77.60;;;;;;5086794;28;19922;-71
2023/05/09 00:31:50;;;;;;;;;;;13.80;77.50;;;;;;5086724;28;20292;-71
2023/05/09 00:34:16;;;;;;;;;;;13.70;77.50;;;;;;5088157;28;20046;-71
2023/05/09 00:36:41;;;;;;;;;;;13.70;77.50;;;;;;5087939;28;19919;-71
2023/05/09 00:39:07;;;;;;;;;;;13.60;77.60;;;;;;5088009;28;20265;-71
2023/05/09 00:41:32;;;;;;;;;;;13.60;77.50;;;;;;5087867;28;19922;-71
2023/05/09 00:43:58;;;;;;;;;;;13.60;77.50;;;;;;5087780;28;19916;-71
2023/05/09 00:46:24;;;;;;;;;;;13.60;77.50;;;;;;5087821;28;19916;-71
2023/05/09 00:48:51;;;;;;;;;;;13.50;77.50;;;;;;5087891;28;19966;-71
2023/05/09 00:51:16;;;;;;;;;;;13.40;77.50;;;;;;5087825;28;20015;-71
2023/05/09 00:53:43;;;;;;;;;;;13.40;77.60;;;;;;5088094;28;19983;-71
2023/05/09 00:56:09;;;;;;;;;;;13.40;77.60;;;;;;5086488;28;19989;-71
2023/05/09 00:58:35;;;;;;;;;;;13.30;77.60;;;;;;5087912;28;19912;-71
2023/05/09 01:01:02;;;;;;;;;;;13.30;77.60;;;;;;5087548;28;20003;-71
2023/05/09 01:03:28;;;;;;;;;;;13.30;77.70;;;;;;5087882;28;19912;-71
2023/05/09 01:06:02;;;;;;;;;;;13.20;77.70;;;;;;5090786;28;19916;-71
2023/05/09 01:08:27;;;;;;;;;;;13.20;77.70;;;;;;5091765;28;20121;-71
2023/05/09 01:11:00;;;;;;;;;;;13.20;77.70;;;;;;5091652;28;20307;-71
2023/05/09 01:13:28;;;;;;;;;;;13.20;77.70;;;;;;5091722;28;20287;-71
2023/05/09 01:15:57;;;;;;;;;;;13.20;77.70;;;;;;5091629;28;20013;-71
2023/05/09 01:18:52;;;;;;;;;;;13.10;77.60;;;;;;5091519;28;20280;-71
2023/05/09 01:21:23;;;;;;;;;;;13.10;77.70;;;;;;5071109;28;19908;-71
2023/05/09 01:23:51;;;;;;;;;;;13.00;77.60;;;;;;5091482;28;19999;-71
2023/05/09 01:26:26;;;;;;;;;;;13.00;77.60;;;;;;5091430;28;20287;-71
2023/05/09 01:28:52;;;;;;;;;;;13.00;77.60;;;;;;5091646;28;19978;-71
2023/05/09 01:31:18;;;;;;;;;;;12.90;77.60;;;;;;5091296;28;19944;-71
2023/05/09 01:33:45;;;;;;;;;;;12.90;77.60;;;;;;5090149;28;20391;-71
2023/05/09 01:36:12;;;;;;;;;;;12.80;77.60;;;;;;5091289;28;19958;-71
2023/05/09 01:38:40;;;;;;;;;;;12.80;77.60;;;;;;5091325;28;19915;-71
2023/05/09 01:41:07;;;;;;;;;;;12.80;77.60;;;;;;5091301;28;19908;-71
2023/05/09 01:43:34;;;;;;;;;;;12.70;77.60;;;;;;5089906;28;20391;-71
2023/05/09 01:45:59;;;;;;;;;;;12.70;77.60;;;;;;5089816;28;19916;-71
2023/05/09 01:48:27;;;;;;;;;;;12.70;77.70;;;;;;5089686;28;19931;-71
2023/05/09 01:50:53;;;;;;;;;;;12.70;77.70;;;;;;5090929;28;19912;-71
2023/05/09 01:53:20;;;;;;;;;;;12.70;77.70;;;;;;5089789;28;19965;-71
2023/05/09 01:55:46;;;;;;;;;;;12.70;77.70;;;;;;5090979;28;19962;-71
2023/05/09 01:58:12;;;;;;;;;;;12.70;77.70;;;;;;5090926;28;20261;-71
2023/05/09 02:00:38;;;;;;;;;;;12.60;77.60;;;;;;5091071;28;19962;-71
2023/05/09 02:03:04;;;;;;;;;;;12.60;77.60;;;;;;5089291;28;19928;-71
2023/05/09 02:05:31;;;;;;;;;;;12.50;77.60;;;;;;5090636;28;19920;-71
2023/05/09 02:07:59;;;;;;;;;;;12.50;77.60;;;;;;5090696;28;19951;-71
2023/05/09 02:10:29;;;;;;;;;;;12.50;77.60;;;;;;5090507;28;20423;-71
2023/05/09 02:12:56;;;;;;;;;;;12.40;77.60;;;;;;5090425;28;19912;-71
2023/05/09 02:15:21;;;;;;;;;;;12.40;77.60;;;;;;5090151;28;19908;-71
2023/05/09 02:17:47;;;;;;;;;;;12.40;77.60;;;;;;5089475;28;19998;-71
2023/05/09 02:20:13;;;;;;;;;;;12.40;77.60;;;;;;5072169;28;19951;-71
2023/05/09 02:22:40;;;;;;;;;;;12.40;77.60;;;;;;5089121;28;19973;-71
2023/05/09 02:25:06;;;;;;;;;;;12.40;77.60;;;;;;5090377;28;19930;-71
2023/05/09 02:27:33;;;;;;;;;;;12.40;77.60;;;;;;5090357;28;20337;-71
2023/05/09 02:30:01;;;;;;;;;;;12.40;77.60;;;;;;5090204;28;19912;-71
2023/05/09 02:32:28;;;;;;;;;;;12.40;77.60;;;;;;5090199;28;19908;-71
2023/05/09 02:34:54;;;;;;;;;;;12.30;77.60;;;;;;5090142;28;19912;-71
2023/05/09 02:37:20;;;;;;;;;;;12.30;77.60;;;;;;5088776;28;20337;-71
2023/05/09 02:39:46;;;;;;;;;;;12.30;77.60;;;;;;5090074;28;19909;-71
2023/05/09 02:42:12;;;;;;;;;;;12.30;77.60;;;;;;5089859;28;19939;-71
2023/05/09 02:44:38;;;;;;;;;;;12.20;77.60;;;;;;5089983;28;19919;-71
2023/05/09 02:47:04;;;;;;;;;;;12.20;77.60;;;;;;5089901;28;19912;-71
2023/05/09 02:49:30;;;;;;;;;;;12.20;77.60;;;;;;5089889;28;19915;-71
2023/05/09 02:51:55;;;;;;;;;;;12.20;77.60;;;;;;5089684;28;19916;-71
2023/05/09 02:54:21;;;;;;;;;;;12.20;77.60;;;;;;5089784;28;19908;-72
2023/05/09 02:56:47;;;;;;;;;;;12.20;77.60;;;;;;5089797;28;19918;-71
2023/05/09 02:59:12;;;;;;;;;;;12.10;77.50;;;;;;5088474;28;19923;-71
2023/05/09 03:01:38;;;;;;;;;;;12.10;77.50;;;;;;5089495;28;19928;-71
2023/05/09 03:04:03;;;;;;;;;;;12.10;77.50;;;;;;5089541;28;20029;-71
2023/05/09 03:06:29;;;;;;;;;;;12.10;78.00;;;;;;5089682;28;19916;-71
2023/05/09 03:08:55;;;;;;;;;;;12.00;77.50;;;;;;5089539;28;19948;-71
2023/05/09 03:11:21;;;;;;;;;;;12.00;77.60;;;;;;5089511;28;19975;-71
2023/05/09 03:13:47;;;;;;;;;;;12.00;77.60;;;;;;5088077;28;20372;-71
2023/05/09 03:16:13;;;;;;;;;;;12.00;77.60;;;;;;5088389;28;19916;-71
2023/05/09 03:18:39;;;;;;;;;;;11.90;77.60;;;;;;5089232;28;19912;-71
2023/05/09 03:21:05;;;;;;;;;;;11.90;77.60;;;;;;5089252;28;19994;-71
2023/05/09 03:23:30;;;;;;;;;;;11.90;77.60;;;;;;5089293;28;19948;-71
2023/05/09 03:25:56;;;;;;;;;;;11.90;77.60;;;;;;5089127;28;19931;-71
2023/05/09 03:28:21;;;;;;;;;;;11.90;77.60;;;;;;5087302;28;19912;-71
2023/05/09 03:30:47;;;;;;;;;;;11.90;77.60;;;;;;5089063;28;19909;-71
2023/05/09 03:33:12;;;;;;;;;;;11.90;77.60;;;;;;5089008;28;20003;-71
2023/05/09 03:35:38;;;;;;;;;;;11.90;77.70;;;;;;5088996;28;20416;-71
2023/05/09 03:38:04;;;;;;;;;;;11.90;77.70;;;;;;5088964;28;19914;-71
2023/05/09 03:40:30;;;;;;;;;;;11.90;77.70;;;;;;5088935;28;19965;-71
2023/05/09 03:42:55;;;;;;;;;;;11.80;77.60;;;;;;5088849;28;20042;-71
2023/05/09 03:45:21;;;;;;;;;;;11.90;77.70;;;;;;5088826;28;19923;-71
2023/05/09 03:47:46;;;;;;;;;;;11.80;77.60;;;;;;5088724;28;20003;-71
2023/05/09 03:50:12;;;;;;;;;;;11.80;77.70;;;;;;5088765;28;19932;-71
2023/05/09 03:52:37;;;;;;;;;;;11.80;77.60;;;;;;5088605;28;19912;-71
2023/05/09 03:55:04;;;;;;;;;;;11.80;77.60;;;;;;5088513;28;19919;-71
2023/05/09 03:57:30;;;;;;;;;;;11.80;77.60;;;;;;5088601;28;19919;-71
2023/05/09 03:59:55;;;;;;;;;;;11.80;77.60;;;;;;5088488;28;19916;-71
2023/05/09 04:02:21;;;;;;;;;;;11.80;77.70;;;;;;5088143;28;19966;-71
2023/05/09 04:04:48;;;;;;;;;;;11.70;77.60;;;;;;5087209;28;19920;-71
2023/05/09 04:07:14;;;;;;;;;;;11.70;77.60;;;;;;5088333;28;20350;-71
2023/05/09 04:09:41;;;;;;;;;;;11.70;77.60;;;;;;5087552;28;20270;-71
2023/05/09 04:12:07;;;;;;;;;;;11.70;77.60;;;;;;5088237;28;19919;-71
2023/05/09 04:14:33;;;;;;;;;;;11.70;77.60;;;;;;5088352;28;19916;-71
2023/05/09 04:16:58;;;;;;;;;;;11.70;77.60;;;;;;5086909;28;20276;-71
2023/05/09 04:19:24;;;;;;;;;;;11.70;77.60;;;;;;5088234;28;19920;-71
2023/05/09 04:21:50;;;;;;;;;;;11.70;77.70;;;;;;5088138;28;20400;-71
2023/05/09 04:24:15;;;;;;;;;;;11.70;77.70;;;;;;5087993;28;19920;-71
2023/05/09 04:26:41;;;;;;;;;;;11.80;77.70;;;;;;5088118;28;19948;-71
2023/05/09 04:29:06;;;;;;;;;;;11.80;77.60;;;;;;5088101;28;19965;-71
2023/05/09 04:31:32;;;;;;;;;;;11.80;77.50;;;;;;5087988;28;20352;-71
2023/05/09 04:33:58;;;;;;;;;;;11.80;77.50;;;;;;5088115;28;19908;-71
2023/05/09 04:36:23;;;;;;;;;;;11.80;77.50;;;;;;5088028;28;19916;-71
2023/05/09 04:38:49;;;;;;;;;;;11.90;77.60;;;;;;5087477;28;19912;-71
2023/05/09 04:41:15;;;;;;;;;;;11.90;77.70;;;;;;5087712;28;20340;-71
2023/05/09 04:43:41;;;;;;;;;;;11.90;77.70;;;;;;5088078;28;19959;-71
2023/05/09 04:46:07;;;;;;;;;;;12.00;77.60;;;;;;5087818;28;19919;-71
2023/05/09 04:48:33;;;;;;;;;;;12.10;77.70;;;;;;5087778;28;19912;-71
2023/05/09 04:50:59;;;;;;;;;;;12.20;77.80;;;;;;5087807;28;20223;-71
2023/05/09 04:53:25;;;;;;;;;;;12.30;77.80;;;;;;5087779;28;20015;-71
2023/05/09 04:55:51;;;;;;;;;;;12.40;77.90;;;;;;5086495;28;19919;-71
2023/05/09 04:58:16;;;;;;;;;;;12.50;77.80;;;;;;5087735;28;19938;-71
2023/05/09 05:00:42;;;;;;;;;;;12.60;77.70;;;;;;5087439;28;19917;-71
2023/05/09 05:03:07;;;;;;;;;;;12.60;77.70;;;;;;5087534;28;20000;-71
2023/05/09 05:05:33;;;;;;;;;;;12.70;77.80;;;;;;5087640;28;20283;-71
2023/05/09 05:07:59;;;;;;;;;;;12.80;77.80;;;;;;5087681;28;19917;-71
2023/05/09 05:10:25;;;;;;;;;;;12.90;77.80;;;;;;5087796;28;20066;-71
2023/05/09 05:12:50;;;;;;;;;;;12.90;78.20;;;;;;5087472;28;19913;-71
2023/05/09 05:15:18;;;;;;;;;;;13.00;78.00;;;;;;5087481;28;20360;-71
2023/05/09 05:17:44;;;;;;;;;;;13.00;77.60;;;;;;5087391;28;19924;-71
2023/05/09 05:20:09;;;;;;;;;;;13.10;77.70;;;;;;5087538;28;19912;-72
2023/05/09 05:22:35;;;;;;;;;;;13.10;77.70;;;;;;5087453;28;19958;-71
2023/05/09 05:25:02;;;;;;;;;;;13.10;77.70;;;;;;5085985;28;20375;-71
2023/05/09 05:27:28;;;;;;;;;;;13.10;77.70;;;;;;5087536;28;19908;-72
2023/05/09 05:29:53;;;;;;;;;;;13.20;77.80;;;;;;5087332;28;20429;-71
2023/05/09 05:32:19;;;;;;;;;;;13.30;77.90;;;;;;5087147;28;19935;-71
2023/05/09 05:34:44;;;;;;;;;;;13.30;77.90;;;;;;5087399;28;19912;-71
2023/05/09 05:37:10;;;;;;;;;;;13.30;77.90;;;;;;5087468;28;20011;-71
2023/05/09 05:39:36;;;;;;;;;;;13.40;78.00;;;;;;5087443;28;19956;-71
2023/05/09 05:42:02;;;;;;;;;;;13.50;78.00;;;;;;5085939;28;19976;-72
2023/05/09 05:44:27;;;;;;;;;;;13.50;77.90;;;;;;5087231;28;20393;-71
2023/05/09 05:46:53;;;;;;;;;;;13.60;78.00;;;;;;5087373;28;20292;-71
2023/05/09 05:49:18;;;;;;;;;;;13.60;77.90;;;;;;5085986;28;19999;-71
2023/05/09 05:51:44;;;;;;;;;;;13.70;77.90;;;;;;5088484;28;19923;-71
2023/05/09 05:54:10;;;;;;;;;;;13.70;78.00;;;;;;5090676;28;20399;-71
2023/05/09 05:56:35;;;;;;;;;;;13.80;78.10;;;;;;5090553;28;19912;-71
2023/05/09 05:59:01;;;;;;;;;;;13.90;78.20;;;;;;5090305;28;19918;-71
2023/05/09 06:01:26;;;;;;;;;;;13.90;78.30;;;;;;5089942;28;19949;-71
2023/05/09 06:03:54;;;;;;;;;;;14.00;78.50;;;;;;5090604;28;20419;-72
2023/05/09 06:06:23;;;;;;;;;;;14.10;78.60;;;;;;5090383;28;20342;-71
2023/05/09 06:08:48;;;;;;;;;;;14.20;78.50;;;;;;5090331;28;20360;-71
2023/05/09 06:11:15;;;;;;;;;;;14.30;78.50;;;;;;5089000;28;19915;-71
2023/05/09 06:13:41;;;;;;;;;;;14.40;78.50;;;;;;5090242;28;19912;-71
2023/05/09 06:16:06;;;;;;;;;;;14.40;78.50;;;;;;5090332;28;19912;-71
2023/05/09 06:18:34;;;;;;;;;;;14.40;78.60;;;;;;5090345;28;20383;-71
2023/05/09 06:21:00;;;;;;;;;;;14.50;78.60;;;;;;5090204;28;19960;-71
2023/05/09 06:23:25;;;;;;;;;;;14.50;78.50;;;;;;5090063;28;19946;-71
2023/05/09 06:25:51;;;;;;;;;;;14.60;78.50;;;;;;5090141;28;19916;-72
2023/05/09 06:28:16;;;;;;;;;;;14.70;78.50;;;;;;5088123;28;20077;-71
2023/05/09 06:30:42;;;;;;;;;;;14.80;78.40;;;;;;5090072;28;19923;-71
2023/05/09 06:33:07;;;;;;;;;;;14.80;78.40;;;;;;5089862;28;19973;-71
2023/05/09 06:35:33;;;;;;;;;;;14.80;78.40;;;;;;5089861;28;19955;-71
2023/05/09 06:37:59;;;;;;;;;;;14.90;78.50;;;;;;5089971;28;20140;-71
2023/05/09 06:40:24;;;;;;;;;;;15.00;78.50;;;;;;5089737;28;20418;-71
2023/05/09 06:42:50;;;;;;;;;;;15.00;78.50;;;;;;5089695;28;19974;-72
2023/05/09 06:45:15;;;;;;;;;;;15.10;78.60;;;;;;5089784;28;19934;-72
2023/05/09 06:47:41;;;;;;;;;;;15.10;78.50;;;;;;5089637;28;20015;-72
2023/05/09 06:50:07;;;;;;;;;;;15.10;78.40;;;;;;5089538;28;19912;-72
2023/05/09 06:52:32;;;;;;;;;;;15.10;78.30;;;;;;5089832;28;19993;-72
2023/05/09 06:54:58;;;;;;;;;;;15.10;78.30;;;;;;5089250;28;19974;-72
2023/05/09 06:57:24;;;;;;;;;;;15.10;78.20;;;;;;5089198;28;19919;-72
2023/05/09 06:59:49;;;;;;;;;;;15.00;78.20;;;;;;5089038;28;19913;-72
2023/05/09 07:02:15;;;;;;;;;;;15.00;78.30;;;;;;5088207;28;19920;-72
2023/05/09 07:04:40;;;;;;;;;;;15.00;78.30;;;;;;5089271;28;19916;-71
2023/05/09 07:07:06;;;;;;;;;;;14.90;78.30;;;;;;5088081;28;19912;-71
2023/05/09 07:09:32;;;;;;;;;;;14.90;78.40;;;;;;5088141;28;20405;-71
2023/05/09 07:11:58;;;;;;;;;;;14.90;78.40;;;;;;5089896;28;19912;-69
2023/05/09 07:14:24;;;;;;;;;;;14.90;78.40;;;;;;5088977;28;19920;-71
2023/05/09 07:16:50;;;;;;;;;;;14.90;78.40;;;;;;5089143;28;19958;-71
2023/05/09 07:19:15;;;;;;;;;;;14.90;78.50;;;;;;5088883;28;20003;-71
2023/05/09 07:21:41;;;;;;;;;;;15.00;78.50;;;;;;5088856;28;19920;-72
2023/05/09 07:24:06;;;;;;;;;;;15.00;78.50;;;;;;5088709;28;19919;-71
2023/05/09 07:26:33;;;;;;;;;;;15.00;78.50;;;;;;5088646;28;20344;-71
2023/05/09 07:28:59;;;;;;;;;;;15.00;78.50;;;;;;5088905;28;19932;-71
2023/05/09 07:31:25;;;;;;;;;;;15.10;78.60;;;;;;5087301;28;19917;-71
2023/05/09 07:33:50;;;;;;;;;;;15.10;78.60;;;;;;5088601;28;19972;-71
2023/05/09 07:36:16;;;;;;;;;;;15.20;78.80;;;;;;5088710;28;19923;-71
2023/05/09 07:38:41;;;;;;;;;;;15.30;78.90;;;;;;5087964;28;20364;-72
2023/05/09 07:41:07;;;;;;;;;;;15.40;78.80;;;;;;5088104;28;19918;-72
2023/05/09 07:43:33;;;;;;;;;;;15.60;78.70;;;;;;5087307;28;19908;-72
2023/05/09 07:45:58;;;;;;;;;;;15.70;78.60;;;;;;5088298;28;20311;-68
2023/05/09 07:48:25;;;;;;;;;;;15.80;78.60;;;;;;5086713;28;19920;-71
2023/05/09 07:50:50;;;;;;;;;;;15.80;78.60;;;;;;5088035;28;20372;-72
2023/05/09 07:53:16;;;;;;;;;;;15.90;78.40;;;;;;5087786;28;19923;-72
2023/05/09 07:55:43;;;;;;;;;;;15.80;78.40;;;;;;5088023;28;19916;-72
2023/05/09 07:58:09;;;;;;;;;;;15.80;78.40;;;;;;5088008;28;20333;-72
2023/05/09 08:00:35;;;;;;;;;;;15.80;78.50;;;;;;5087664;28;20012;-72
2023/05/09 08:03:00;;;;;;;;;;;15.70;78.50;;;;;;5087805;28;19928;-72
2023/05/09 08:05:26;;;;;;;;;;;15.70;78.60;;;;;;5087809;28;19924;-72
2023/05/09 08:07:51;;;;;;;;;;;15.60;78.50;;;;;;5088433;28;19922;-72
2023/05/09 08:10:17;;;;;;;;;;;15.60;78.70;;;;;;5087914;28;20004;-72
2023/05/09 08:12:42;;;;;;;;;;;15.70;78.90;;;;;;5088375;28;19920;-72
2023/05/09 08:15:08;;;;;;;;;;;15.80;79.00;;;;;;5086955;28;19923;-73
2023/05/09 08:17:34;;;;;;;;;;;16.10;79.30;;;;;;5088403;28;20045;-73
2023/05/09 08:19:59;;;;;;;;;;;16.40;79.20;;;;;;5088578;28;19916;-73
2023/05/09 08:22:25;;;;;;;;;;;16.70;79.00;;;;;;5088342;28;20003;-73
2023/05/09 08:24:51;;;;;;;;;;;17.00;79.30;;;;;;5088336;28;19919;-73
2023/05/09 08:27:16;;;;;;;;;;;17.80;79.70;;;;;;5088613;28;19916;-73
2023/05/09 08:29:42;;;;;;;;;;;18.70;79.60;;;;;;5086799;28;20256;-74
2023/05/09 08:32:07;;;;;;;;;;;19.50;79.50;;;;;;5087574;28;19977;-74
2023/05/09 08:34:33;;;;;;;;;;;20.20;79.00;;;;;;5087481;28;19915;-73
2023/05/09 08:36:59;;;;;;;;;;;20.70;78.60;;;;;;5088418;28;19908;-73
2023/05/09 08:39:25;;;;;;;;;;;21.10;78.30;;;;;;5088173;28;20541;-74
2023/05/09 08:41:52;;;;;;;;;;;21.20;77.90;;;;;;5086363;28;19990;-74
2023/05/09 08:44:18;;;;;;;;;;;21.30;78.30;;;;;;5087873;28;19915;-74
2023/05/09 08:46:43;;;;;;;;;;;21.50;78.10;;;;;;5085245;28;19919;-74
2023/05/09 08:49:09;;;;;;;;;;;21.60;78.30;;;;;;5087887;28;19908;-74
2023/05/09 08:51:35;;;;;;;;;;;21.50;77.90;;;;;;5086593;28;19908;-74
2023/05/09 08:54:01;;;;;;;;;;;21.30;78.60;;;;;;5087593;28;19908;-74
2023/05/09 08:56:27;;;;;;;;;;;21.50;79.50;;;;;;5086300;28;19966;-74
2023/05/09 08:58:54;;;;;;;;;;;21.90;79.40;;;;;;5087395;28;19928;-74
2023/05/09 09:01:20;;;;;;;;;;;22.00;79.10;;;;;;5087326;28;20032;-74
2023/05/09 09:03:48;;;;;;;;;;;22.00;79.60;;;;;;5087701;28;19947;-74
2023/05/09 09:06:17;;;;;;;;;;;22.10;79.20;;;;;;5087995;28;19912;-75
2023/05/09 09:08:43;;;;;;;;;;;21.90;79.00;;;;;;5087633;28;19919;-75
2023/05/09 09:11:14;;;;;;;;;;;21.80;79.30;;;;;;5087848;28;19908;-74
2023/05/09 09:13:41;;;;;;;;;;;21.70;79.10;;;;;;5087990;28;19912;-74
2023/05/09 09:16:13;;;;;;;;;;;22.00;80.20;;;;;;5087751;28;19912;-74
2023/05/09 09:18:39;;;;;;;;;;;23.00;80.90;;;;;;5087618;28;19938;-75
2023/05/09 09:21:05;;;;;;;;;;;24.20;80.70;;;;;;5087144;28;19920;-72
2023/05/09 09:23:31;;;;;;;;;;;25.10;80.60;;;;;;5087797;28;20357;-74
2023/05/09 09:25:58;;;;;;;;;;;26.20;81.00;;;;;;5088593;28;19966;-74
2023/05/09 09:28:23;;;;;;;;;;;27.10;80.60;;;;;;5090794;28;19921;-72
2023/05/09 09:30:49;;;;;;;;;;;27.90;80.50;;;;;;5090621;28;19916;-72
2023/05/09 09:33:21;;;;;;;;;;;28.60;80.30;;;;;;5089768;28;20372;-73
2023/05/09 09:35:51;;;;;;;;;;;29.00;80.60;;;;;;5091249;28;20317;-73
2023/05/09 09:38:18;;;;;;;;;;;29.50;81.00;;;;;;5091870;28;19916;-74
2023/05/09 09:40:56;;;;;;;;;;;29.60;80.00;;;;;;5091231;28;19931;-74
2023/05/09 09:43:31;;;;;;;;;;;29.50;79.80;;;;;;5089524;28;19923;-74
2023/05/09 09:46:00;;;;;;;;;;;29.30;80.30;;;;;;5086819;28;20380;-73
2023/05/09 09:48:29;;;;;;;;;;;29.50;80.70;;;;;;5090670;28;19965;-73
2023/05/09 09:50:55;;;;;;;;;;;29.20;80.00;;;;;;5090853;28;19930;-73
2023/05/09 09:53:22;;;;;;;;;;;29.20;80.80;;;;;;5090954;28;20337;-73
2023/05/09 09:55:52;;;;;;;;;;;29.00;80.10;;;;;;5091078;28;19915;-73
2023/05/09 09:58:20;;;;;;;;;;;29.00;80.80;;;;;;5090967;28;20458;-77
2023/05/09 10:00:46;;;;;;;;;;;29.40;81.40;;;;;;5090701;28;19915;-76
2023/05/09 10:03:15;;;;;;;;;;;29.30;80.10;;;;;;5090663;28;19912;-75
2023/05/09 10:05:41;;;;;;;;;;;28.70;79.60;;;;;;5090929;28;19932;-76
2023/05/09 10:08:08;;;;;;;;;;;28.70;80.70;;;;;;5090870;28;19916;-77
2023/05/09 10:10:34;;;;;;;;;;;28.60;80.50;;;;;;5090273;28;20326;-76
2023/05/09 10:13:08;;;;;;;;;;;28.90;81.60;;;;;;5090532;28;19916;-76
2023/05/09 10:15:34;;;;;;;;;;;28.70;80.70;;;;;;5089274;28;20058;-76
2023/05/09 10:18:03;;;;;;;;;;;27.90;80.30;;;;;;5089851;28;19950;-76
2023/05/09 10:20:29;;;;;;;;;;;28.10;81.90;;;;;;5091145;28;19912;-77
2023/05/09 10:22:56;;;;;;;;;;;28.20;81.00;;;;;;5090119;28;19908;-77
2023/05/09 10:25:26;;;;;;;;;;;27.60;81.20;;;;;;5091517;28;20561;-76
2023/05/09 10:27:52;;;;;;;;;;;27.80;83.00;;;;;;5091035;28;20260;-77
2023/05/09 10:30:21;;;;;;;;;;;28.40;83.40;;;;;;5090877;28;19915;-77
2023/05/09 10:32:50;;;;;;;;;;;29.60;83.90;;;;;;5090757;28;19915;-76
2023/05/09 10:35:17;;;;;;;;;;;30.90;83.70;;;;;;5089423;28;19908;-77
2023/05/09 10:37:44;;;;;;;;;;;32.10;82.80;;;;;;5089386;28;20018;-77
2023/05/09 10:40:13;;;;;;;;;;;32.20;81.30;;;;;;5090768;28;19997;-77
2023/05/09 10:42:40;;;;;;;;;;;32.00;81.00;;;;;;5091027;28;19915;-76
2023/05/09 10:45:08;;;;;;;;;;;31.90;80.90;;;;;;5089051;28;19912;-78
2023/05/09 10:47:34;;;;;;;;;;;31.80;80.80;;;;;;5090567;28;19908;-77
2023/05/09 10:50:00;;;;;;;;;;;31.60;80.50;;;;;;5090083;28;19989;-77
2023/05/09 10:52:30;;;;;;;;;;;31.10;80.30;;;;;;5090683;28;19913;-77
2023/05/09 10:55:02;;;;;;;;;;;30.80;80.90;;;;;;5089750;28;19958;-77
2023/05/09 10:57:29;;;;;;;;;;;30.90;82.10;;;;;;5089922;28;20588;-77
2023/05/09 10:59:55;;;;;;;;;;;31.50;82.70;;;;;;5090561;28;19958;-78
2023/05/09 11:02:21;;;;;;;;;;;31.60;82.10;;;;;;5089919;28;19924;-77
2023/05/09 11:04:46;;;;;;;;;;;31.80;82.50;;;;;;5089945;28;19922;-78
2023/05/09 11:07:23;;;;;;;;;;;32.10;82.60;;;;;;5089364;28;19931;-77
2023/05/09 11:09:52;;;;;;;;;;;32.40;82.50;;;;;;5087840;28;19912;-78
2023/05/09 11:12:19;;;;;;;;;;;32.50;81.90;;;;;;5089775;28;19948;-77
2023/05/09 11:14:47;;;;;;;;;;;32.10;81.50;;;;;;5089652;28;20367;-76
2023/05/09 11:17:14;;;;;;;;;;;31.90;81.70;;;;;;5089787;28;19916;-77
2023/05/09 11:19:45;;;;;;;;;;;31.70;81.60;;;;;;5090561;28;19909;-77
2023/05/09 11:22:11;;;;;;;;;;;31.60;82.00;;;;;;5089783;28;20364;-76
2023/05/09 11:24:37;;;;;;;;;;;31.60;82.10;;;;;;5090160;28;19913;-78
2023/05/09 11:27:13;;;;;;;;;;;31.40;82.20;;;;;;5090246;28;20003;-79
2023/05/09 11:29:42;;;;;;;;;;;31.60;82.50;;;;;;5089863;28;20352;-77
2023/05/09 11:32:11;;;;;;;;;;;31.70;82.10;;;;;;5090056;28;19915;-78
2023/05/09 11:34:39;;;;;;;;;;;31.70;81.60;;;;;;5089687;28;20474;-79
2023/05/09 11:37:09;;;;;;;;;;;31.90;82.10;;;;;;5089932;28;19918;-77
2023/05/09 11:39:53;;;;;;;;;;;31.80;80.90;;;;;;5089135;28;19912;-73
2023/05/09 11:42:19;;;;;;;;;;;31.60;81.30;;;;;;5089890;28;19908;-78
2023/05/09 11:44:47;;;;;;;;;;;31.00;79.90;;;;;;5089740;28;20230;-77
2023/05/09 11:47:13;;;;;;;;;;;30.20;79.40;;;;;;5089615;28;19969;-77
2023/05/09 11:49:41;;;;;;;;;;;29.20;79.20;;;;;;5089913;28;19912;-76
2023/05/09 11:52:07;;;;;;;;;;;28.40;79.20;;;;;;5089865;28;19908;-76
2023/05/09 11:54:35;;;;;;;;;;;27.60;79.40;;;;;;5089460;28;19962;-74
2023/05/09 11:57:00;;;;;;;;;;;27.10;79.70;;;;;;5090262;28;20484;-75
2023/05/09 11:59:27;;;;;;;;;;;26.80;80.00;;;;;;5089748;28;19917;-76
2023/05/09 12:01:53;;;;;;;;;;;26.90;81.10;;;;;;5089139;28;20724;-77
2023/05/09 12:04:19;;;;;;;;;;;27.10;80.90;;;;;;5089797;28;19912;-80
2023/05/09 12:06:48;;;;;;;;;;;27.10;80.30;;;;;;5089918;28;19923;-77
2023/05/09 12:09:15;;;;;;;;;;;27.00;80.10;;;;;;5089719;28;20356;-78
2023/05/09 12:11:49;;;;;;;;;;;26.80;79.90;;;;;;5089677;28;19959;-78
2023/05/09 12:14:31;;;;;;;;;;;26.60;79.70;;;;;;5090094;28;20374;-83
2023/05/09 12:16:57;;;;;;;;;;;26.30;79.10;;;;;;5090179;28;19908;-78
2023/05/09 12:19:23;;;;;;;;;;;25.90;78.90;;;;;;5088268;28;19919;-78
2023/05/09 12:21:53;;;;;;;;;;;25.50;78.90;;;;;;5088674;28;20376;-78
2023/05/09 12:24:19;;;;;;;;;;;25.40;79.30;;;;;;5089251;28;19947;-77
2023/05/09 12:26:45;;;;;;;;;;;25.30;79.00;;;;;;5088085;28;19912;-76
2023/05/09 12:29:11;;;;;;;;;;;25.00;78.70;;;;;;5089439;28;19919;-79
2023/05/09 12:31:37;;;;;;;;;;;25.00;79.40;;;;;;5089263;28;19919;-80
2023/05/09 12:34:03;;;;;;;;;;;24.90;79.20;;;;;;5089791;28;19917;-80
2023/05/09 12:36:33;;;;;;;;;;;24.60;78.90;;;;;;5089476;28;19912;-80
2023/05/09 12:38:58;;;;;;;;;;;24.20;78.50;;;;;;5089174;28;19915;-75
2023/05/09 12:41:24;;;;;;;;;;;23.90;78.60;;;;;;5089036;28;19912;-79
2023/05/09 12:43:50;;;;;;;;;;;23.70;78.80;;;;;;5087531;28;19977;-80
2023/05/09 12:46:19;;;;;;;;;;;23.70;79.10;;;;;;5087603;28;19912;-80
2023/05/09 12:48:47;;;;;;;;;;;23.70;78.80;;;;;;5088318;28;20029;-79
2023/05/09 12:51:16;;;;;;;;;;;23.50;78.50;;;;;;5089532;28;19983;-79
2023/05/09 12:53:42;;;;;;;;;;;23.50;78.50;;;;;;5089415;28;20334;-75
2023/05/09 12:56:12;;;;;;;;;;;23.40;78.40;;;;;;5089467;28;19920;-78
2023/05/09 12:58:38;;;;;;;;;;;23.40;78.40;;;;;;5088966;28;20003;-78
2023/05/09 13:01:04;;;;;;;;;;;23.40;78.40;;;;;;5090626;28;19973;-78
2023/05/09 13:03:36;;;;;;;;;;;23.50;78.30;;;;;;5093848;28;19911;-76
2023/05/09 13:06:11;;;;;;;;;;;23.50;78.30;;;;;;5091853;28;19912;-78
2023/05/09 13:08:37;;;;;;;;;;;23.50;78.20;;;;;;5093569;28;20302;-78
2023/05/09 13:11:04;;;;;;;;;;;23.60;78.30;;;;;;5092919;28;19912;-77
2023/05/09 13:13:29;;;;;;;;;;;23.70;78.60;;;;;;5092977;28;20293;-77
2023/05/09 13:15:56;;;;;;;;;;;23.90;78.40;;;;;;5095044;28;19912;-78
2023/05/09 13:18:23;;;;;;;;;;;24.10;78.60;;;;;;5094561;28;20363;-79
2023/05/09 13:20:49;;;;;;;;;;;24.20;78.50;;;;;;5093740;28;20300;-78
2023/05/09 13:23:15;;;;;;;;;;;24.40;78.50;;;;;;5091994;28;19920;-75
2023/05/09 13:25:40;;;;;;;;;;;24.60;78.70;;;;;;5092112;28;19916;-80
2023/05/09 13:28:06;;;;;;;;;;;24.80;78.70;;;;;;5091782;28;19965;-80
2023/05/09 13:30:31;;;;;;;;;;;25.10;78.60;;;;;;5093328;28;19957;-80
2023/05/09 13:32:57;;;;;;;;;;;25.30;78.80;;;;;;5091263;28;19912;-77
2023/05/09 13:35:22;;;;;;;;;;;25.50;78.40;;;;;;5092463;28;20375;-79
2023/05/09 13:37:48;;;;;;;;;;;25.50;78.20;;;;;;5092517;28;19943;-78
2023/05/09 13:40:14;;;;;;;;;;;25.30;78.10;;;;;;5093602;28;20394;-78
2023/05/09 13:42:39;;;;;;;;;;;25.20;78.30;;;;;;5092783;28;19922;-78
2023/05/09 13:45:05;;;;;;;;;;;25.20;78.30;;;;;;5091126;28;19916;-78
2023/05/09 13:47:31;;;;;;;;;;;25.20;78.50;;;;;;5091060;28;19912;-77
2023/05/09 13:49:57;;;;;;;;;;;25.30;78.70;;;;;;5092371;28;19995;-77
2023/05/09 13:52:22;;;;;;;;;;;25.50;78.40;;;;;;5091260;28;20329;-78
2023/05/09 13:54:48;;;;;;;;;;;25.30;77.60;;;;;;5090775;28;19940;-77
2023/05/09 13:57:14;;;;;;;;;;;25.00;77.30;;;;;;5091217;28;20307;-78
2023/05/09 13:59:42;;;;;;;;;;;24.60;77.30;;;;;;5091278;28;19926;-78
2023/05/09 14:02:09;;;;;;;;;;;24.20;77.50;;;;;;5091207;28;19924;-73
2023/05/09 14:04:35;;;;;;;;;;;23.80;77.60;;;;;;5089971;28;20002;-75
2023/05/09 14:07:01;;;;;;;;;;;23.30;77.30;;;;;;5090913;28;20396;-74
2023/05/09 14:09:27;;;;;;;;;;;22.80;77.50;;;;;;5089373;28;20276;-74
2023/05/09 14:11:53;;;;;;;;;;;22.40;77.60;;;;;;5090519;28;19920;-74